sensor_id;sensor_type;location;lat;lon;timestamp;pressure;altitude;pressure_sealevel;temperature;humidity
34921;BME280;21128;50.016;20.002;2023-11-19T00:00:22;99403.93;;;1.34;100.00
34921;BME280;21128;50.016;20.002;2023-11-19T00:03:28;99397.36;;;1.38;100.00
34921;BME280;21128;50.016;20.002;2023-11-19T00:06:14;99389.82;;;1.41;100.00
34921;BME280;21128;50.016;20.002;2023-11-19T00:08:59;99389.20;;;1.44;100.00
34921;BME280;21128;50.016;20.002;2023-11-19T00:11:45;99389.91;;;1.47;100.00
34921;BME280;21128;50.016;20.002;2023-11-19T00:14:37;99389.38;;;1.51;100.00
34921;BME280;21128;50.016;20.002;2023-11-19T00:17:22;99392.36;;;1.54;100.00
34921;BME280;21128;50.016;20.002;2023-11-19T00:20:08;99391.73;;;1.56;100.00
34921;BME280;21128;50.016;20.002;2023-11-19T00:22:54;99381.88;;;1.56;100.00
34921;BME280;21128;50.016;20.002;2023-11-19T00:25:39;99380.57;;;1.55;100.00
34921;BME280;21128;50.016;20.002;2023-11-19T00:28:33;99379.36;;;1.55;100.00
34921;BME280;21128;50.016;20.002;2023-11-19T00:31:19;99383.41;;;1.53;100.00
34921;BME280;21128;50.016;20.002;2023-11-19T00:34:04;99373.94;;;1.53;100.00
34921;BME280;21128;50.016;20.002;2023-11-19T00:36:51;99364.66;;;1.52;100.00
34921;BME280;21128;50.016;20.002;2023-11-19T00:39:37;99362.05;;;1.48;100.00
34921;BME280;21128;50.016;20.002;2023-11-19T00:42:22;99357.91;;;1.45;100.00
34921;BME280;21128;50.016;20.002;2023-11-19T00:45:09;99352.63;;;1.43;100.00
34921;BME280;21128;50.016;20.002;2023-11-19T00:47:55;99339.88;;;1.43;100.00
34921;BME280;21128;50.016;20.002;2023-11-19T00:50:47;99336.17;;;1.40;100.00
34921;BME280;21128;50.016;20.002;2023-11-19T00:53:32;99337.17;;;1.40;100.00
34921;BME280;21128;50.016;20.002;2023-11-19T00:56:19;99331.53;;;1.44;100.00
34921;BME280;21128;50.016;20.002;2023-11-19T00:59:05;99332.17;;;1.48;100.00
34921;BME280;21128;50.016;20.002;2023-11-19T01:01:50;99327.82;;;1.53;100.00
34921;BME280;21128;50.016;20.002;2023-11-19T01:04:36;99321.92;;;1.57;100.00
34921;BME280;21128;50.016;20.002;2023-11-19T01:07:21;99321.20;;;1.57;100.00
34921;BME280;21128;50.016;20.002;2023-11-19T01:10:09;99316.58;;;1.53;100.00
34921;BME280;21128;50.016;20.002;2023-11-19T01:12:55;99317.12;;;1.49;100.00
34921;BME280;21128;50.016;20.002;2023-11-19T01:15:41;99316.21;;;1.47;100.00
34921;BME280;21128;50.016;20.002;2023-11-19T01:18:26;99311.59;;;1.46;100.00
34921;BME280;21128;50.016;20.002;2023-11-19T01:21:12;99314.19;;;1.46;100.00
34921;BME280;21128;50.016;20.002;2023-11-19T01:24:06;99316.26;;;1.46;100.00
34921;BME280;21128;50.016;20.002;2023-11-19T01:27:01;99310.30;;;1.47;100.00
34921;BME280;21128;50.016;20.002;2023-11-19T01:29:46;99313.41;;;1.51;100.00
34921;BME280;21128;50.016;20.002;2023-11-19T01:32:32;99317.71;;;1.51;100.00
34921;BME280;21128;50.016;20.002;2023-11-19T01:35:17;99324.54;;;1.49;100.00
34921;BME280;21128;50.016;20.002;2023-11-19T01:38:03;99314.55;;;1.49;100.00
34921;BME280;21128;50.016;20.002;2023-11-19T01:40:48;99305.94;;;1.48;100.00
34921;BME280;21128;50.016;20.002;2023-11-19T01:43:41;99306.39;;;1.46;100.00
34921;BME280;21128;50.016;20.002;2023-11-19T01:46:26;99306.98;;;1.45;100.00
34921;BME280;21128;50.016;20.002;2023-11-19T01:49:14;99304.05;;;1.45;100.00
34921;BME280;21128;50.016;20.002;2023-11-19T01:52:07;99303.54;;;1.45;100.00
34921;BME280;21128;50.016;20.002;2023-11-19T01:55:00;99300.54;;;1.42;100.00
34921;BME280;21128;50.016;20.002;2023-11-19T01:57:48;99292.32;;;1.40;100.00
34921;BME280;21128;50.016;20.002;2023-11-19T02:00:34;99284.44;;;1.39;100.00
34921;BME280;21128;50.016;20.002;2023-11-19T02:03:19;99280.32;;;1.39;100.00
34921;BME280;21128;50.016;20.002;2023-11-19T02:06:06;99274.61;;;1.39;100.00
34921;BME280;21128;50.016;20.002;2023-11-19T02:08:52;99270.28;;;1.39;100.00
34921;BME280;21128;50.016;20.002;2023-11-19T02:11:40;99271.13;;;1.39;100.00
34921;BME280;21128;50.016;20.002;2023-11-19T02:14:26;99264.88;;;1.40;100.00
34921;BME280;21128;50.016;20.002;2023-11-19T02:17:31;99264.74;;;1.39;100.00
34921;BME280;21128;50.016;20.002;2023-11-19T02:20:17;99265.21;;;1.37;100.00
34921;BME280;21128;50.016;20.002;2023-11-19T02:23:05;99264.02;;;1.37;100.00
34921;BME280;21128;50.016;20.002;2023-11-19T02:26:16;99253.02;;;1.36;100.00
34921;BME280;21128;50.016;20.002;2023-11-19T02:29:10;99235.29;;;1.34;100.00
34921;BME280;21128;50.016;20.002;2023-11-19T02:31:55;99225.52;;;1.37;100.00
34921;BME280;21128;50.016;20.002;2023-11-19T02:34:42;99218.41;;;1.38;100.00
34921;BME280;21128;50.016;20.002;2023-11-19T02:37:27;99205.05;;;1.39;100.00
34921;BME280;21128;50.016;20.002;2023-11-19T02:40:13;99196.33;;;1.40;100.00
34921;BME280;21128;50.016;20.002;2023-11-19T02:42:58;99193.48;;;1.42;100.00
34921;BME280;21128;50.016;20.002;2023-11-19T02:45:44;99184.01;;;1.42;100.00
34921;BME280;21128;50.016;20.002;2023-11-19T02:48:30;99175.24;;;1.45;100.00
34921;BME280;21128;50.016;20.002;2023-11-19T02:51:23;99169.61;;;1.47;100.00
34921;BME280;21128;50.016;20.002;2023-11-19T02:54:09;99167.53;;;1.47;100.00
34921;BME280;21128;50.016;20.002;2023-11-19T02:56:55;99175.45;;;1.48;100.00
34921;BME280;21128;50.016;20.002;2023-11-19T02:59:44;99162.36;;;1.47;100.00
34921;BME280;21128;50.016;20.002;2023-11-19T03:02:30;99161.63;;;1.48;100.00
34921;BME280;21128;50.016;20.002;2023-11-19T03:05:19;99156.87;;;1.50;100.00
34921;BME280;21128;50.016;20.002;2023-11-19T03:08:04;99155.27;;;1.50;100.00
34921;BME280;21128;50.016;20.002;2023-11-19T03:10:50;99139.75;;;1.50;100.00
34921;BME280;21128;50.016;20.002;2023-11-19T03:13:35;99124.35;;;1.50;100.00
34921;BME280;21128;50.016;20.002;2023-11-19T03:16:21;99118.27;;;1.52;100.00
34921;BME280;21128;50.016;20.002;2023-11-19T03:19:07;99119.33;;;1.55;100.00
34921;BME280;21128;50.016;20.002;2023-11-19T03:21:52;99113.11;;;1.55;100.00
34921;BME280;21128;50.016;20.002;2023-11-19T03:24:37;99105.98;;;1.52;100.00
34921;BME280;21128;50.016;20.002;2023-11-19T03:27:29;99103.61;;;1.48;100.00
34921;BME280;21128;50.016;20.002;2023-11-19T03:30:15;99103.95;;;1.45;100.00
34921;BME280;21128;50.016;20.002;2023-11-19T03:33:03;99099.02;;;1.43;100.00
34921;BME280;21128;50.016;20.002;2023-11-19T03:35:48;99091.25;;;1.43;100.00
34921;BME280;21128;50.016;20.002;2023-11-19T03:38:34;99086.09;;;1.43;100.00
34921;BME280;21128;50.016;20.002;2023-11-19T03:41:19;99085.63;;;1.41;100.00
34921;BME280;21128;50.016;20.002;2023-11-19T03:44:13;99087.19;;;1.41;100.00
34921;BME280;21128;50.016;20.002;2023-11-19T03:46:58;99081.00;;;1.40;100.00
34921;BME280;21128;50.016;20.002;2023-11-19T03:49:50;99084.21;;;1.38;100.00
34921;BME280;21128;50.016;20.002;2023-11-19T03:52:36;99082.91;;;1.37;100.00
34921;BME280;21128;50.016;20.002;2023-11-19T03:55:21;99079.50;;;1.37;100.00
34921;BME280;21128;50.016;20.002;2023-11-19T03:58:07;99063.70;;;1.35;100.00
34921;BME280;21128;50.016;20.002;2023-11-19T04:00:53;99052.89;;;1.34;100.00
34921;BME280;21128;50.016;20.002;2023-11-19T04:03:38;99050.65;;;1.33;100.00
34921;BME280;21128;50.016;20.002;2023-11-19T04:06:24;99048.35;;;1.31;100.00
34921;BME280;21128;50.016;20.002;2023-11-19T04:09:09;99030.08;;;1.28;100.00
34921;BME280;21128;50.016;20.002;2023-11-19T04:11:55;99025.72;;;1.25;100.00
34921;BME280;21128;50.016;20.002;2023-11-19T04:14:40;99028.96;;;1.23;100.00
34921;BME280;21128;50.016;20.002;2023-11-19T04:17:26;99033.38;;;1.21;100.00
34921;BME280;21128;50.016;20.002;2023-11-19T04:20:11;99035.74;;;1.19;100.00
34921;BME280;21128;50.016;20.002;2023-11-19T04:22:58;99025.24;;;1.18;100.00
34921;BME280;21128;50.016;20.002;2023-11-19T04:25:45;99018.35;;;1.18;100.00
34921;BME280;21128;50.016;20.002;2023-11-19T04:28:44;99012.32;;;1.18;100.00
34921;BME280;21128;50.016;20.002;2023-11-19T04:31:30;99004.39;;;1.17;100.00
34921;BME280;21128;50.016;20.002;2023-11-19T04:34:16;99008.06;;;1.16;100.00
34921;BME280;21128;50.016;20.002;2023-11-19T04:37:02;99005.30;;;1.16;100.00
34921;BME280;21128;50.016;20.002;2023-11-19T04:39:48;98997.63;;;1.18;100.00
34921;BME280;21128;50.016;20.002;2023-11-19T04:42:41;98995.41;;;1.18;100.00
34921;BME280;21128;50.016;20.002;2023-11-19T04:45:26;98992.35;;;1.20;100.00
34921;BME280;21128;50.016;20.002;2023-11-19T04:48:19;98987.06;;;1.22;100.00
34921;BME280;21128;50.016;20.002;2023-11-19T04:51:05;98971.09;;;1.23;100.00
34921;BME280;21128;50.016;20.002;2023-11-19T04:53:50;98963.77;;;1.25;100.00
34921;BME280;21128;50.016;20.002;2023-11-19T04:56:36;98962.33;;;1.26;100.00
34921;BME280;21128;50.016;20.002;2023-11-19T04:59:22;98957.09;;;1.28;100.00
34921;BME280;21128;50.016;20.002;2023-11-19T05:02:09;98953.56;;;1.26;100.00
34921;BME280;21128;50.016;20.002;2023-11-19T05:04:54;98960.94;;;1.23;100.00
34921;BME280;21128;50.016;20.002;2023-11-19T05:07:40;98960.60;;;1.20;100.00
34921;BME280;21128;50.016;20.002;2023-11-19T05:10:28;98961.89;;;1.19;100.00
34921;BME280;21128;50.016;20.002;2023-11-19T05:13:14;98956.23;;;1.18;100.00
34921;BME280;21128;50.016;20.002;2023-11-19T05:16:00;98953.26;;;1.15;100.00
34921;BME280;21128;50.016;20.002;2023-11-19T05:18:45;98951.38;;;1.11;100.00
34921;BME280;21128;50.016;20.002;2023-11-19T05:21:31;98957.25;;;1.11;100.00
34921;BME280;21128;50.016;20.002;2023-11-19T05:24:16;98959.58;;;1.13;100.00
34921;BME280;21128;50.016;20.002;2023-11-19T05:27:02;98957.07;;;1.15;100.00
34921;BME280;21128;50.016;20.002;2023-11-19T05:30:04;98958.83;;;1.18;100.00
34921;BME280;21128;50.016;20.002;2023-11-19T05:32:55;98956.27;;;1.20;100.00
34921;BME280;21128;50.016;20.002;2023-11-19T05:35:41;98957.88;;;1.22;100.00
34921;BME280;21128;50.016;20.002;2023-11-19T05:38:27;98954.38;;;1.23;100.00
34921;BME280;21128;50.016;20.002;2023-11-19T05:41:14;98949.94;;;1.22;100.00
34921;BME280;21128;50.016;20.002;2023-11-19T05:44:00;98955.81;;;1.22;100.00
34921;BME280;21128;50.016;20.002;2023-11-19T05:46:45;98952.05;;;1.22;100.00
34921;BME280;21128;50.016;20.002;2023-11-19T05:49:38;98948.34;;;1.20;100.00
34921;BME280;21128;50.016;20.002;2023-11-19T05:52:23;98940.05;;;1.17;100.00
34921;BME280;21128;50.016;20.002;2023-11-19T05:55:09;98933.80;;;1.14;100.00
34921;BME280;21128;50.016;20.002;2023-11-19T05:57:55;98926.80;;;1.13;100.00
34921;BME280;21128;50.016;20.002;2023-11-19T06:00:41;98914.03;;;1.13;100.00
34921;BME280;21128;50.016;20.002;2023-11-19T06:03:26;98907.33;;;1.12;100.00
34921;BME280;21128;50.016;20.002;2023-11-19T06:06:13;98913.50;;;1.13;100.00
34921;BME280;21128;50.016;20.002;2023-11-19T06:08:59;98906.44;;;1.13;100.00
34921;BME280;21128;50.016;20.002;2023-11-19T06:11:44;98897.64;;;1.13;100.00
34921;BME280;21128;50.016;20.002;2023-11-19T06:14:30;98891.59;;;1.10;100.00
34921;BME280;21128;50.016;20.002;2023-11-19T06:17:21;98900.64;;;1.08;100.00
34921;BME280;21128;50.016;20.002;2023-11-19T06:20:08;98913.20;;;1.06;100.00
34921;BME280;21128;50.016;20.002;2023-11-19T06:22:53;98910.45;;;1.06;100.00
34921;BME280;21128;50.016;20.002;2023-11-19T06:25:39;98910.11;;;1.08;100.00
34921;BME280;21128;50.016;20.002;2023-11-19T06:28:37;98897.02;;;1.11;100.00
34921;BME280;21128;50.016;20.002;2023-11-19T06:31:30;98902.70;;;1.15;100.00
34921;BME280;21128;50.016;20.002;2023-11-19T06:34:15;98906.98;;;1.22;100.00
34921;BME280;21128;50.016;20.002;2023-11-19T06:37:01;98906.92;;;1.26;100.00
34921;BME280;21128;50.016;20.002;2023-11-19T06:39:49;98905.88;;;1.30;100.00
34921;BME280;21128;50.016;20.002;2023-11-19T06:42:35;98905.29;;;1.31;100.00
34921;BME280;21128;50.016;20.002;2023-11-19T06:45:20;98906.94;;;1.32;100.00
34921;BME280;21128;50.016;20.002;2023-11-19T06:48:06;98907.97;;;1.36;100.00
34921;BME280;21128;50.016;20.002;2023-11-19T06:50:52;98908.17;;;1.38;100.00
34921;BME280;21128;50.016;20.002;2023-11-19T06:53:38;98898.92;;;1.40;100.00
34921;BME280;21128;50.016;20.002;2023-11-19T06:56:25;98895.02;;;1.42;100.00
34921;BME280;21128;50.016;20.002;2023-11-19T06:59:10;98893.88;;;1.45;100.00
34921;BME280;21128;50.016;20.002;2023-11-19T07:02:03;98892.34;;;1.47;100.00
34921;BME280;21128;50.016;20.002;2023-11-19T07:04:50;98881.09;;;1.51;100.00
34921;BME280;21128;50.016;20.002;2023-11-19T07:07:36;98868.73;;;1.53;100.00
34921;BME280;21128;50.016;20.002;2023-11-19T07:10:21;98861.21;;;1.55;100.00
34921;BME280;21128;50.016;20.002;2023-11-19T07:13:07;98859.75;;;1.56;100.00
34921;BME280;21128;50.016;20.002;2023-11-19T07:15:52;98859.14;;;1.57;100.00
34921;BME280;21128;50.016;20.002;2023-11-19T07:18:38;98852.14;;;1.59;100.00
34921;BME280;21128;50.016;20.002;2023-11-19T07:21:24;98838.53;;;1.62;100.00
34921;BME280;21128;50.016;20.002;2023-11-19T07:24:10;98839.88;;;1.65;100.00
34921;BME280;21128;50.016;20.002;2023-11-19T07:27:05;98833.58;;;1.70;100.00
34921;BME280;21128;50.016;20.002;2023-11-19T07:29:51;98817.60;;;1.72;100.00
34921;BME280;21128;50.016;20.002;2023-11-19T07:32:43;98816.70;;;1.75;100.00
34921;BME280;21128;50.016;20.002;2023-11-19T07:35:29;98818.39;;;1.79;100.00
34921;BME280;21128;50.016;20.002;2023-11-19T07:38:18;98811.84;;;1.84;100.00
34921;BME280;21128;50.016;20.002;2023-11-19T07:41:05;98818.46;;;1.89;100.00
34921;BME280;21128;50.016;20.002;2023-11-19T07:43:51;98831.75;;;1.99;100.00
34921;BME280;21128;50.016;20.002;2023-11-19T07:46:38;98838.67;;;2.10;100.00
34921;BME280;21128;50.016;20.002;2023-11-19T07:49:23;98850.02;;;2.20;100.00
34921;BME280;21128;50.016;20.002;2023-11-19T07:52:15;98848.62;;;2.30;100.00
34921;BME280;21128;50.016;20.002;2023-11-19T07:55:01;98850.02;;;2.35;100.00
34921;BME280;21128;50.016;20.002;2023-11-19T07:57:47;98833.04;;;2.41;100.00
34921;BME280;21128;50.016;20.002;2023-11-19T08:00:34;98828.94;;;2.49;100.00
34921;BME280;21128;50.016;20.002;2023-11-19T08:03:20;98819.92;;;2.56;100.00
34921;BME280;21128;50.016;20.002;2023-11-19T08:06:07;98815.89;;;2.62;100.00
34921;BME280;21128;50.016;20.002;2023-11-19T08:08:52;98809.72;;;2.70;100.00
34921;BME280;21128;50.016;20.002;2023-11-19T08:11:37;98804.46;;;2.76;100.00
34921;BME280;21128;50.016;20.002;2023-11-19T08:14:30;98801.41;;;2.84;100.00
34921;BME280;21128;50.016;20.002;2023-11-19T08:17:16;98795.98;;;2.88;100.00
34921;BME280;21128;50.016;20.002;2023-11-19T08:20:01;98792.48;;;2.88;100.00
34921;BME280;21128;50.016;20.002;2023-11-19T08:22:48;98786.38;;;2.89;100.00
34921;BME280;21128;50.016;20.002;2023-11-19T08:25:33;98780.38;;;2.88;100.00
34921;BME280;21128;50.016;20.002;2023-11-19T08:28:32;98773.34;;;2.88;100.00
34921;BME280;21128;50.016;20.002;2023-11-19T08:31:19;98768.20;;;2.87;100.00
34921;BME280;21128;50.016;20.002;2023-11-19T08:34:05;98759.55;;;2.87;100.00
34921;BME280;21128;50.016;20.002;2023-11-19T08:36:54;98746.64;;;2.88;100.00
34921;BME280;21128;50.016;20.002;2023-11-19T08:39:39;98741.95;;;2.89;100.00
34921;BME280;21128;50.016;20.002;2023-11-19T08:42:26;98756.91;;;2.87;100.00
34921;BME280;21128;50.016;20.002;2023-11-19T08:45:11;98767.70;;;2.86;100.00
34921;BME280;21128;50.016;20.002;2023-11-19T08:47:57;98767.02;;;2.86;100.00
34921;BME280;21128;50.016;20.002;2023-11-19T08:50:42;98766.73;;;2.85;100.00
34921;BME280;21128;50.016;20.002;2023-11-19T08:53:27;98759.21;;;2.86;100.00
34921;BME280;21128;50.016;20.002;2023-11-19T08:56:13;98752.91;;;2.90;100.00
34921;BME280;21128;50.016;20.002;2023-11-19T08:59:05;98742.85;;;2.94;100.00
34921;BME280;21128;50.016;20.002;2023-11-19T09:01:57;98742.06;;;2.95;100.00
34921;BME280;21128;50.016;20.002;2023-11-19T09:04:42;98744.56;;;2.97;100.00
34921;BME280;21128;50.016;20.002;2023-11-19T09:07:28;98742.68;;;3.01;100.00
34921;BME280;21128;50.016;20.002;2023-11-19T09:10:14;98742.41;;;3.06;100.00
34921;BME280;21128;50.016;20.002;2023-11-19T09:12:59;98734.22;;;3.12;100.00
34921;BME280;21128;50.016;20.002;2023-11-19T09:15:45;98734.38;;;3.18;100.00
34921;BME280;21128;50.016;20.002;2023-11-19T09:18:30;98735.34;;;3.22;100.00
34921;BME280;21128;50.016;20.002;2023-11-19T09:21:17;98728.41;;;3.25;100.00
34921;BME280;21128;50.016;20.002;2023-11-19T09:24:03;98723.64;;;3.26;100.00
34921;BME280;21128;50.016;20.002;2023-11-19T09:26:48;98713.55;;;3.24;100.00
34921;BME280;21128;50.016;20.002;2023-11-19T09:29:41;98701.12;;;3.26;100.00
34921;BME280;21128;50.016;20.002;2023-11-19T09:32:28;98691.39;;;3.29;100.00
34921;BME280;21128;50.016;20.002;2023-11-19T09:35:20;98680.79;;;3.33;100.00
34921;BME280;21128;50.016;20.002;2023-11-19T09:38:12;98673.91;;;3.34;100.00
34921;BME280;21128;50.016;20.002;2023-11-19T09:41:05;98668.90;;;3.34;100.00
34921;BME280;21128;50.016;20.002;2023-11-19T09:43:54;98660.22;;;3.34;100.00
34921;BME280;21128;50.016;20.002;2023-11-19T09:46:41;98662.65;;;3.34;100.00
34921;BME280;21128;50.016;20.002;2023-11-19T09:49:27;98656.28;;;3.36;100.00
34921;BME280;21128;50.016;20.002;2023-11-19T09:52:19;98654.66;;;3.40;100.00
34921;BME280;21128;50.016;20.002;2023-11-19T09:55:05;98650.08;;;3.39;100.00
34921;BME280;21128;50.016;20.002;2023-11-19T09:57:52;98642.59;;;3.39;100.00
34921;BME280;21128;50.016;20.002;2023-11-19T10:00:44;98646.96;;;3.44;100.00
34921;BME280;21128;50.016;20.002;2023-11-19T10:03:34;98651.02;;;3.58;100.00
34921;BME280;21128;50.016;20.002;2023-11-19T10:06:24;98647.20;;;3.79;100.00
34921;BME280;21128;50.016;20.002;2023-11-19T10:09:12;98643.92;;;3.94;100.00
34921;BME280;21128;50.016;20.002;2023-11-19T10:12:00;98633.13;;;4.02;100.00
34921;BME280;21128;50.016;20.002;2023-11-19T10:14:47;98630.60;;;4.04;100.00
34921;BME280;21128;50.016;20.002;2023-11-19T10:17:34;98620.81;;;4.05;100.00
34921;BME280;21128;50.016;20.002;2023-11-19T10:20:20;98610.58;;;4.10;100.00
34921;BME280;21128;50.016;20.002;2023-11-19T10:23:05;98607.23;;;4.18;100.00
34921;BME280;21128;50.016;20.002;2023-11-19T10:26:03;98600.35;;;4.27;100.00
34921;BME280;21128;50.016;20.002;2023-11-19T10:29:01;98592.71;;;4.37;100.00
34921;BME280;21128;50.016;20.002;2023-11-19T10:31:56;98582.73;;;4.43;100.00
34921;BME280;21128;50.016;20.002;2023-11-19T10:34:42;98581.52;;;4.52;100.00
34921;BME280;21128;50.016;20.002;2023-11-19T10:37:28;98581.95;;;4.61;100.00
34921;BME280;21128;50.016;20.002;2023-11-19T10:40:17;98575.84;;;4.67;100.00
34921;BME280;21128;50.016;20.002;2023-11-19T10:43:03;98566.52;;;4.80;100.00
34921;BME280;21128;50.016;20.002;2023-11-19T10:45:49;98565.89;;;4.86;100.00
34921;BME280;21128;50.016;20.002;2023-11-19T10:48:35;98558.30;;;4.86;100.00
34921;BME280;21128;50.016;20.002;2023-11-19T10:51:20;98549.02;;;4.82;100.00
34921;BME280;21128;50.016;20.002;2023-11-19T10:54:09;98541.02;;;4.83;100.00
34921;BME280;21128;50.016;20.002;2023-11-19T10:56:59;98529.09;;;4.79;100.00
34921;BME280;21128;50.016;20.002;2023-11-19T10:59:55;98515.91;;;4.74;100.00
34921;BME280;21128;50.016;20.002;2023-11-19T11:02:50;98504.92;;;4.73;100.00
34921;BME280;21128;50.016;20.002;2023-11-19T11:05:40;98508.21;;;4.70;100.00
34921;BME280;21128;50.016;20.002;2023-11-19T11:08:27;98510.31;;;4.66;100.00
34921;BME280;21128;50.016;20.002;2023-11-19T11:11:15;98507.08;;;4.62;100.00
34921;BME280;21128;50.016;20.002;2023-11-19T11:14:03;98493.98;;;4.59;100.00
34921;BME280;21128;50.016;20.002;2023-11-19T11:16:49;98481.66;;;4.57;100.00
34921;BME280;21128;50.016;20.002;2023-11-19T11:19:36;98476.60;;;4.57;100.00
34921;BME280;21128;50.016;20.002;2023-11-19T11:22:23;98466.61;;;4.58;100.00
34921;BME280;21128;50.016;20.002;2023-11-19T11:25:23;98462.19;;;4.59;100.00
34921;BME280;21128;50.016;20.002;2023-11-19T11:37:49;98452.55;;;4.61;100.00
34921;BME280;21128;50.016;20.002;2023-11-19T11:40:38;98439.84;;;4.57;100.00
34921;BME280;21128;50.016;20.002;2023-11-19T11:43:45;98440.02;;;4.54;100.00
34921;BME280;21128;50.016;20.002;2023-11-19T11:49:24;98411.05;;;4.45;100.00
34921;BME280;21128;50.016;20.002;2023-11-19T11:52:17;98417.72;;;4.42;100.00
34921;BME280;21128;50.016;20.002;2023-11-19T11:55:04;98424.74;;;4.38;100.00
34921;BME280;21128;50.016;20.002;2023-11-19T11:57:55;98424.62;;;4.38;100.00
34921;BME280;21128;50.016;20.002;2023-11-19T12:00:41;98425.33;;;4.38;100.00
34921;BME280;21128;50.016;20.002;2023-11-19T12:03:28;98419.96;;;4.35;100.00
34921;BME280;21128;50.016;20.002;2023-11-19T12:06:15;98415.65;;;4.30;100.00
34921;BME280;21128;50.016;20.002;2023-11-19T12:09:01;98409.48;;;4.29;100.00
34921;BME280;21128;50.016;20.002;2023-11-19T12:11:47;98408.18;;;4.26;100.00
34921;BME280;21128;50.016;20.002;2023-11-19T12:17:47;98395.40;;;4.15;100.00
34921;BME280;21128;50.016;20.002;2023-11-19T12:20:36;98391.42;;;4.06;100.00
34921;BME280;21128;50.016;20.002;2023-11-19T12:23:23;98385.27;;;4.00;100.00
34921;BME280;21128;50.016;20.002;2023-11-19T12:26:21;98380.55;;;3.93;100.00
34921;BME280;21128;50.016;20.002;2023-11-19T12:29:21;98374.58;;;3.85;100.00
34921;BME280;21128;50.016;20.002;2023-11-19T12:32:07;98373.56;;;3.80;100.00
34921;BME280;21128;50.016;20.002;2023-11-19T12:34:54;98363.75;;;3.77;100.00
34921;BME280;21128;50.016;20.002;2023-11-19T12:37:48;98351.93;;;3.72;100.00
34921;BME280;21128;50.016;20.002;2023-11-19T12:40:34;98351.50;;;3.68;100.00
34921;BME280;21128;50.016;20.002;2023-11-19T12:43:23;98341.86;;;3.63;100.00
34921;BME280;21128;50.016;20.002;2023-11-19T12:46:21;98337.71;;;3.53;100.00
34921;BME280;21128;50.016;20.002;2023-11-19T12:49:07;98337.29;;;3.42;100.00
34921;BME280;21128;50.016;20.002;2023-11-19T12:51:53;98332.84;;;3.32;100.00
34921;BME280;21128;50.016;20.002;2023-11-19T12:54:38;98334.52;;;3.21;100.00
34921;BME280;21128;50.016;20.002;2023-11-19T12:57:40;98329.05;;;3.09;100.00
34921;BME280;21128;50.016;20.002;2023-11-19T13:00:26;98326.08;;;2.98;100.00
34921;BME280;21128;50.016;20.002;2023-11-19T13:03:12;98322.28;;;2.88;100.00
34921;BME280;21128;50.016;20.002;2023-11-19T13:06:02;98315.17;;;2.80;100.00
34921;BME280;21128;50.016;20.002;2023-11-19T13:08:50;98313.39;;;2.76;100.00
34921;BME280;21128;50.016;20.002;2023-11-19T13:11:38;98303.61;;;2.78;100.00
34921;BME280;21128;50.016;20.002;2023-11-19T13:14:36;98300.68;;;2.80;100.00
34921;BME280;21128;50.016;20.002;2023-11-19T13:17:23;98292.92;;;2.77;100.00
34921;BME280;21128;50.016;20.002;2023-11-19T13:20:09;98295.56;;;2.74;100.00
34921;BME280;21128;50.016;20.002;2023-11-19T13:22:57;98286.02;;;2.70;100.00
34921;BME280;21128;50.016;20.002;2023-11-19T13:25:43;98287.87;;;2.68;100.00
34921;BME280;21128;50.016;20.002;2023-11-19T13:28:43;98288.87;;;2.66;100.00
34921;BME280;21128;50.016;20.002;2023-11-19T13:31:28;98284.06;;;2.66;100.00
34921;BME280;21128;50.016;20.002;2023-11-19T13:34:14;98282.80;;;2.64;100.00
34921;BME280;21128;50.016;20.002;2023-11-19T13:36:59;98279.55;;;2.61;100.00
34921;BME280;21128;50.016;20.002;2023-11-19T13:39:45;98274.65;;;2.59;100.00
34921;BME280;21128;50.016;20.002;2023-11-19T13:42:31;98272.17;;;2.57;100.00
34921;BME280;21128;50.016;20.002;2023-11-19T13:45:16;98270.02;;;2.56;100.00
34921;BME280;21128;50.016;20.002;2023-11-19T13:48:03;98265.17;;;2.53;100.00
34921;BME280;21128;50.016;20.002;2023-11-19T13:50:49;98269.23;;;2.52;100.00
34921;BME280;21128;50.016;20.002;2023-11-19T13:53:35;98269.48;;;2.54;100.00
34921;BME280;21128;50.016;20.002;2023-11-19T13:56:21;98266.04;;;2.56;100.00
34921;BME280;21128;50.016;20.002;2023-11-19T13:59:06;98263.45;;;2.58;100.00
34921;BME280;21128;50.016;20.002;2023-11-19T14:01:54;98261.89;;;2.58;100.00
34921;BME280;21128;50.016;20.002;2023-11-19T14:04:39;98261.84;;;2.59;100.00
34921;BME280;21128;50.016;20.002;2023-11-19T14:07:25;98259.02;;;2.60;100.00
34921;BME280;21128;50.016;20.002;2023-11-19T14:10:10;98257.18;;;2.62;100.00
34921;BME280;21128;50.016;20.002;2023-11-19T14:12:58;98254.59;;;2.62;100.00
34921;BME280;21128;50.016;20.002;2023-11-19T14:15:44;98262.77;;;2.61;100.00
34921;BME280;21128;50.016;20.002;2023-11-19T14:18:29;98261.20;;;2.61;100.00
34921;BME280;21128;50.016;20.002;2023-11-19T14:21:18;98257.28;;;2.63;100.00
34921;BME280;21128;50.016;20.002;2023-11-19T14:24:04;98257.13;;;2.65;100.00
34921;BME280;21128;50.016;20.002;2023-11-19T14:26:49;98252.38;;;2.66;100.00
34921;BME280;21128;50.016;20.002;2023-11-19T14:29:44;98250.36;;;2.67;100.00
34921;BME280;21128;50.016;20.002;2023-11-19T14:32:32;98242.94;;;2.67;100.00
34921;BME280;21128;50.016;20.002;2023-11-19T14:35:17;98244.41;;;2.66;100.00
34921;BME280;21128;50.016;20.002;2023-11-19T14:38:03;98244.04;;;2.66;100.00
34921;BME280;21128;50.016;20.002;2023-11-19T14:40:50;98244.83;;;2.70;100.00
34921;BME280;21128;50.016;20.002;2023-11-19T14:43:36;98237.27;;;2.74;100.00
34921;BME280;21128;50.016;20.002;2023-11-19T14:46:21;98233.35;;;2.76;100.00
34921;BME280;21128;50.016;20.002;2023-11-19T14:49:06;98229.92;;;2.78;100.00
34921;BME280;21128;50.016;20.002;2023-11-19T14:51:55;98231.32;;;2.80;100.00